Shafer, Minnesota
Current Conditions -  °F | °C
As of 8:35 PM on Sunday 23 Nov 2014 (Local Time) from KOEO Reporting Station
Drizzle Drizzle  
Wind Chill: 33°   Ceiling: 3600
Heat Index: 37°   Visibility: 7mi
Dew Point: 37°   Wind: 5mph
Humidity: 100%   Direction: 320°NW
Pressure: 29.37"   Gusts: NA
Location:  45.39°N, 92.75°W
Report Text: KOEO 240235Z AUTO 32004KT 7SM -DZ SCT006 OVC036 03/03 A2937 RMK AO2 T00270027
Loading
Personal Weather Stations






























Interactive Weather Map New forecast layout! Learn more

10-Day Weather Forecast

Advertisements
Track Severe Weather on mobile